Time;durP1;ratioP1;P1;durP2;ratioP2;P2;SDS_P1;SDS_P2;PMS_P1;PMS_P2;Temp;Humidity;BMP_temperature;BMP_pressure;BME280_temperature;BME280_humidity;BME280_pressure;Samples;Min_cycle;Max_cycle;Signal;HPM_P1;HPM_P2
2024/02/09 00:00:03;;;;;;;7.90;3.13;;;11.80;99.90;;;;;;5055076;28;20487;-56
2024/02/09 00:02:31;;;;;;;10.03;3.80;;;11.80;99.90;;;;;;5055026;28;20457;-57
2024/02/09 00:04:57;;;;;;;11.80;3.90;;;11.80;99.90;;;;;;5055173;28;20454;-57
2024/02/09 00:07:26;;;;;;;8.60;3.67;;;11.80;99.90;;;;;;5054781;28;20467;-57
2024/02/09 00:09:52;;;;;;;11.37;4.17;;;11.80;99.90;;;;;;5055869;28;20437;-57
2024/02/09 00:12:20;;;;;;;11.83;3.53;;;11.80;99.90;;;;;;5055091;28;20560;-58
2024/02/09 00:14:47;;;;;;;6.53;3.73;;;11.90;99.90;;;;;;5054903;28;20516;-57
2024/02/09 00:17:15;;;;;;;7.53;3.80;;;11.90;99.90;;;;;;5054236;28;20544;-57
2024/02/09 00:19:41;;;;;;;8.70;3.83;;;11.80;99.90;;;;;;5054781;28;20445;-57
2024/02/09 00:22:11;;;;;;;13.93;4.00;;;11.80;99.90;;;;;;5055720;28;20434;-57
2024/02/09 00:24:42;;;;;;;10.37;3.60;;;11.90;99.90;;;;;;5055809;28;20468;-57
2024/02/09 00:27:09;;;;;;;9.63;3.90;;;11.80;99.90;;;;;;5054451;28;20975;-56
2024/02/09 00:29:36;;;;;;;11.67;4.10;;;11.80;99.90;;;;;;5055193;28;20441;-57
2024/02/09 00:32:04;;;;;;;11.77;4.23;;;11.80;99.90;;;;;;5054559;28;20458;-57
2024/02/09 00:34:33;;;;;;;9.63;3.53;;;11.80;99.90;;;;;;5054533;28;20445;-57
2024/02/09 00:37:01;;;;;;;13.00;4.47;;;11.80;99.90;;;;;;5054763;28;20458;-57
2024/02/09 00:39:33;;;;;;;12.17;3.80;;;11.80;99.90;;;;;;5054478;28;20476;-57
2024/02/09 00:42:02;;;;;;;7.67;3.30;;;11.80;99.90;;;;;;5055232;28;20426;-57
2024/02/09 00:44:29;;;;;;;8.50;3.63;;;11.80;99.90;;;;;;5055101;28;20442;-57
2024/02/09 00:46:56;;;;;;;8.23;4.07;;;11.80;99.90;;;;;;5054321;28;20457;-57
2024/02/09 00:49:23;;;;;;;18.43;5.13;;;11.70;99.90;;;;;;5054648;28;20905;-57
2024/02/09 00:51:52;;;;;;;9.67;3.63;;;11.70;99.90;;;;;;5054121;28;20518;-57
2024/02/09 00:54:19;;;;;;;9.07;3.80;;;11.80;99.90;;;;;;5054322;28;20420;-57
2024/02/09 00:56:46;;;;;;;11.37;4.10;;;11.70;99.90;;;;;;5053776;28;20461;-57
2024/02/09 00:59:15;;;;;;;9.83;4.13;;;11.70;99.90;;;;;;5053964;28;20438;-57
2024/02/09 01:01:42;;;;;;;8.97;3.53;;;11.70;99.90;;;;;;5053817;28;20511;-57
2024/02/09 01:04:11;;;;;;;8.67;4.20;;;11.70;99.90;;;;;;5053691;28;20438;-57
2024/02/09 01:06:38;;;;;;;15.33;4.53;;;11.70;99.90;;;;;;5053597;28;20493;-57
2024/02/09 01:09:06;;;;;;;7.83;3.70;;;11.70;99.90;;;;;;5053751;28;20446;-56
2024/02/09 01:11:32;;;;;;;8.23;4.03;;;11.70;99.90;;;;;;5053653;28;20559;-56
2024/02/09 02:46:50;;;;;;;5.30;2.07;;;11.60;99.90;;;;;;5056979;28;20253;-58
2024/02/09 03:05:44;;;;;;;3.77;1.87;;;11.70;99.90;;;;;;5058025;28;20927;-58
2024/02/09 03:08:11;;;;;;;4.90;1.63;;;11.70;99.90;;;;;;5058794;28;20477;-58
2024/02/09 03:10:39;;;;;;;5.43;2.27;;;11.70;99.90;;;;;;5058585;28;20541;-58
2024/02/09 03:13:07;;;;;;;4.40;1.70;;;11.70;99.90;;;;;;5058842;28;20477;-58
2024/02/09 03:15:34;;;;;;;5.50;2.10;;;11.70;99.90;;;;;;5058583;28;20445;-58
2024/02/09 03:18:04;;;;;;;3.03;1.20;;;11.70;99.90;;;;;;5059273;28;20548;-58
2024/02/09 03:20:32;;;;;;;5.20;1.67;;;11.70;99.90;;;;;;5060792;28;20926;-58
2024/02/09 03:23:01;;;;;;;2.70;1.60;;;11.80;99.90;;;;;;5060948;28;20445;-58
2024/02/09 03:25:28;;;;;;;3.67;1.53;;;11.70;99.90;;;;;;5060738;28;20507;-58
2024/02/09 03:27:56;;;;;;;2.37;1.33;;;11.70;99.90;;;;;;5055994;28;20560;-58
2024/02/09 03:30:26;;;;;;;2.93;1.20;;;11.70;99.90;;;;;;5055790;28;20524;-58
2024/02/09 03:32:54;;;;;;;10.23;2.13;;;11.70;99.90;;;;;;5055782;28;20486;-58
2024/02/09 03:35:23;;;;;;;4.37;1.53;;;11.70;99.90;;;;;;5055498;28;20452;-57
2024/02/09 03:37:50;;;;;;;5.00;1.47;;;11.70;99.90;;;;;;5055373;28;20535;-58
2024/02/09 03:40:17;;;;;;;1.83;1.00;;;11.70;99.90;;;;;;5055455;28;20529;-58
2024/02/09 03:42:44;;;;;;;3.73;1.13;;;11.70;99.90;;;;;;5055829;28;20442;-57
2024/02/09 03:45:12;;;;;;;6.17;1.20;;;11.70;99.90;;;;;;5055217;28;20523;-58
2024/02/09 03:47:41;;;;;;;2.33;1.43;;;11.70;99.90;;;;;;5055116;28;20552;-58
2024/02/09 03:50:08;;;;;;;2.67;1.20;;;11.70;99.90;;;;;;5054806;28;20441;-57
2024/02/09 03:52:35;;;;;;;1.73;1.17;;;11.70;99.90;;;;;;5054600;28;20956;-58
2024/02/09 03:55:02;;;;;;;2.13;1.37;;;11.70;99.90;;;;;;5055006;28;20451;-58
2024/02/09 03:57:31;;;;;;;2.80;1.60;;;11.70;99.90;;;;;;5055255;28;20462;-58
2024/02/09 03:59:58;;;;;;;2.60;1.10;;;11.70;99.90;;;;;;5054853;28;20442;-58
2024/02/09 04:02:28;;;;;;;2.47;1.40;;;11.70;99.90;;;;;;5054771;28;20437;-58
2024/02/09 04:04:54;;;;;;;2.17;1.27;;;11.70;99.90;;;;;;5054818;28;20927;-57
2024/02/09 04:07:22;;;;;;;4.00;1.10;;;11.60;99.90;;;;;;5054433;28;20457;-58
2024/02/09 04:09:49;;;;;;;2.20;1.13;;;11.60;99.90;;;;;;5054570;28;20441;-58
2024/02/09 04:12:16;;;;;;;3.33;1.80;;;11.60;99.90;;;;;;5054780;28;20449;-58
2024/02/09 04:14:43;;;;;;;3.93;1.00;;;11.60;99.90;;;;;;5054350;28;20481;-58
2024/02/09 04:17:10;;;;;;;3.80;1.47;;;11.60;99.90;;;;;;5054557;28;20560;-58
2024/02/09 04:19:39;;;;;;;3.93;1.53;;;11.60;99.90;;;;;;5054575;28;20449;-58
2024/02/09 04:22:08;;;;;;;2.20;1.33;;;11.60;99.90;;;;;;5053993;28;20456;-58
2024/02/09 04:24:36;;;;;;;2.43;1.40;;;11.60;99.90;;;;;;5054510;28;20511;-58
2024/02/09 04:27:04;;;;;;;2.93;1.43;;;11.60;99.90;;;;;;5054102;28;20501;-58
2024/02/09 04:29:32;;;;;;;1.33;1.23;;;11.60;99.90;;;;;;5054354;28;20441;-58
2024/02/09 04:31:59;;;;;;;2.87;1.37;;;11.60;99.90;;;;;;5054335;28;20453;-58
2024/02/09 04:34:26;;;;;;;2.07;1.40;;;11.60;99.90;;;;;;5054226;28;20477;-57
2024/02/09 04:36:56;;;;;;;3.63;1.23;;;11.60;99.90;;;;;;5054250;28;20512;-58
2024/02/09 04:39:25;;;;;;;5.20;1.53;;;11.60;99.90;;;;;;5054161;28;20441;-57
2024/02/09 04:41:52;;;;;;;2.07;0.90;;;11.60;99.90;;;;;;5054273;28;20517;-57
2024/02/09 04:44:21;;;;;;;2.50;1.47;;;11.60;99.90;;;;;;5054075;28;20444;-58
2024/02/09 04:46:48;;;;;;;2.10;0.90;;;11.60;99.90;;;;;;5054089;28;20851;-58
2024/02/09 04:49:15;;;;;;;3.63;1.10;;;11.60;99.90;;;;;;5053894;28;20485;-57
2024/02/09 04:51:43;;;;;;;1.63;1.10;;;11.60;99.90;;;;;;5053639;28;20939;-57
2024/02/09 04:54:12;;;;;;;1.33;1.10;;;11.60;99.90;;;;;;5053536;28;21027;-57
2024/02/09 04:56:39;;;;;;;3.30;1.20;;;11.70;99.90;;;;;;5054442;28;20560;-57
2024/02/09 04:59:08;;;;;;;2.67;1.20;;;11.70;99.90;;;;;;5053645;28;20442;-57
2024/02/09 05:01:37;;;;;;;2.03;0.90;;;11.70;99.90;;;;;;5053848;28;20437;-57
2024/02/09 05:04:06;;;;;;;2.83;1.10;;;11.70;99.90;;;;;;5053845;28;20525;-58
2024/02/09 05:06:34;;;;;;;1.77;1.10;;;11.70;99.90;;;;;;5053684;28;20472;-58
2024/02/09 05:09:00;;;;;;;1.63;1.27;;;11.70;99.90;;;;;;5053339;28;20442;-58
2024/02/09 05:11:33;;;;;;;2.47;0.80;;;11.80;99.90;;;;;;5053434;28;20452;-58
2024/02/09 05:14:00;;;;;;;2.40;1.13;;;11.70;99.90;;;;;;5053586;28;20555;-57
2024/02/09 05:16:28;;;;;;;1.67;1.07;;;11.80;99.90;;;;;;5053252;28;20462;-58
2024/02/09 05:18:55;;;;;;;4.27;1.30;;;11.70;99.90;;;;;;5054337;28;20448;-58
2024/02/09 05:21:22;;;;;;;2.57;1.00;;;11.70;99.90;;;;;;5057578;28;20532;-57
2024/02/09 05:23:49;;;;;;;1.70;1.00;;;11.80;99.90;;;;;;5055677;28;20439;-57
2024/02/09 05:26:15;;;;;;;5.40;1.17;;;11.70;99.90;;;;;;5054339;28;21037;-57
2024/02/09 05:28:46;;;;;;;3.03;1.20;;;11.80;99.90;;;;;;5054424;28;20454;-57
2024/02/09 05:31:15;;;;;;;6.10;1.33;;;11.70;99.90;;;;;;5054064;28;20437;-57
2024/02/09 05:33:42;;;;;;;2.50;1.50;;;11.70;99.90;;;;;;5053905;28;20516;-57
2024/02/09 05:36:18;;;;;;;6.60;1.10;;;11.80;99.90;;;;;;5053774;28;20556;-58
2024/02/09 05:38:45;;;;;;;4.10;1.13;;;11.80;99.90;;;;;;5053521;28;20427;-57
2024/02/09 05:41:12;;;;;;;3.53;1.60;;;11.80;99.90;;;;;;5053487;28;20448;-57
2024/02/09 05:43:39;;;;;;;1.00;0.90;;;11.70;99.90;;;;;;5053212;28;20963;-57
2024/02/09 05:46:08;;;;;;;3.40;1.10;;;11.80;99.90;;;;;;5053020;28;20437;-57
2024/02/09 05:48:35;;;;;;;5.40;1.63;;;11.70;99.90;;;;;;5053429;28;20441;-57
2024/02/09 05:51:02;;;;;;;1.50;1.07;;;11.80;99.90;;;;;;5053010;28;20445;-57
2024/02/09 05:53:29;;;;;;;1.27;1.10;;;11.80;99.90;;;;;;5053026;28;20495;-57
2024/02/09 05:55:56;;;;;;;2.07;1.23;;;11.80;99.90;;;;;;5053186;28;20446;-57
2024/02/09 05:58:23;;;;;;;2.60;1.20;;;11.90;99.90;;;;;;5052967;28;20865;-57
2024/02/09 06:00:52;;;;;;;3.60;1.73;;;11.90;99.90;;;;;;5052919;28;20948;-57
2024/02/09 06:03:20;;;;;;;2.80;1.20;;;11.90;99.90;;;;;;5052819;28;20944;-57
2024/02/09 06:05:48;;;;;;;4.70;1.17;;;12.00;99.90;;;;;;5053118;28;20445;-57
2024/02/09 06:08:14;;;;;;;2.30;1.20;;;11.90;99.90;;;;;;5053230;28;20449;-57
2024/02/09 06:10:41;;;;;;;3.40;1.40;;;11.90;99.90;;;;;;5053098;28;20444;-57
2024/02/09 06:13:09;;;;;;;5.83;1.50;;;11.90;99.90;;;;;;5052753;28;21022;-57
2024/02/09 06:15:37;;;;;;;5.33;1.60;;;12.00;99.90;;;;;;5053054;28;20438;-56
2024/02/09 06:18:05;;;;;;;3.73;1.57;;;12.00;99.90;;;;;;5052996;28;20468;-56
2024/02/09 06:20:33;;;;;;;2.20;1.87;;;12.00;99.90;;;;;;5053018;28;20450;-56
2024/02/09 06:23:00;;;;;;;3.00;2.50;;;12.00;99.90;;;;;;5052916;28;20536;-56
2024/02/09 06:25:27;;;;;;;6.77;1.53;;;12.00;99.90;;;;;;5053076;28;20520;-56
2024/02/09 06:27:55;;;;;;;2.57;1.33;;;12.00;99.90;;;;;;5052951;28;21015;-57
2024/02/09 06:30:22;;;;;;;3.07;1.50;;;12.10;99.90;;;;;;5052772;28;20472;-56
2024/02/09 06:32:49;;;;;;;4.30;1.47;;;12.10;99.90;;;;;;5053086;28;20437;-56
2024/02/09 06:35:18;;;;;;;2.13;2.00;;;12.10;99.90;;;;;;5052827;28;20485;-56
2024/02/09 06:37:46;;;;;;;3.63;1.60;;;12.10;99.90;;;;;;5052433;28;20991;-56
2024/02/09 06:40:14;;;;;;;3.40;1.30;;;12.10;99.90;;;;;;5052439;28;20936;-56
2024/02/09 06:42:43;;;;;;;4.20;2.13;;;12.00;99.90;;;;;;5052417;28;20932;-56
2024/02/09 06:45:14;;;;;;;2.60;2.20;;;12.00;99.90;;;;;;5055378;28;20438;-56
2024/02/09 06:47:41;;;;;;;4.27;2.77;;;12.00;99.90;;;;;;5056126;28;20989;-56
2024/02/09 06:50:10;;;;;;;3.57;2.60;;;12.00;99.90;;;;;;5056113;28;20954;-56
2024/02/09 06:52:37;;;;;;;3.47;1.73;;;12.00;99.90;;;;;;5056247;28;20587;-56
2024/02/09 06:55:07;;;;;;;11.43;2.43;;;12.00;99.90;;;;;;5056356;28;20476;-56
2024/02/09 06:57:34;;;;;;;2.33;1.60;;;12.00;99.90;;;;;;5056210;28;20472;-56
2024/02/09 07:00:03;;;;;;;2.97;1.30;;;12.00;99.90;;;;;;5056219;28;20446;-56
2024/02/09 07:02:30;;;;;;;3.70;1.77;;;12.00;99.90;;;;;;5056659;28;20528;-56
2024/02/09 07:05:01;;;;;;;2.53;1.30;;;12.00;99.90;;;;;;5056313;28;20480;-56
2024/02/09 07:07:29;;;;;;;2.20;1.10;;;12.00;99.90;;;;;;5056316;28;20461;-56
2024/02/09 07:09:56;;;;;;;3.43;1.53;;;12.10;99.90;;;;;;5056088;28;20944;-56
2024/02/09 07:12:27;;;;;;;5.43;1.50;;;12.10;99.90;;;;;;5056876;28;20806;-56
2024/02/09 07:14:55;;;;;;;2.23;1.17;;;12.00;99.90;;;;;;5055881;28;20504;-57
2024/02/09 07:17:25;;;;;;;3.43;1.40;;;12.10;99.90;;;;;;5055774;28;20470;-57
2024/02/09 07:19:51;;;;;;;3.10;1.90;;;12.10;99.90;;;;;;5055825;28;20536;-57
2024/02/09 07:22:18;;;;;;;2.57;1.53;;;12.10;99.90;;;;;;5055688;28;20827;-57
2024/02/09 07:24:45;;;;;;;3.13;1.60;;;12.00;99.90;;;;;;5055791;28;20434;-57
2024/02/09 07:27:13;;;;;;;4.03;2.07;;;12.00;99.90;;;;;;5055628;28;20462;-57
2024/02/09 07:29:45;;;;;;;8.43;1.90;;;12.10;99.90;;;;;;5055396;28;20940;-57
2024/02/09 07:32:12;;;;;;;6.03;1.77;;;12.10;99.90;;;;;;5055522;28;20464;-57
2024/02/09 07:34:39;;;;;;;4.00;2.07;;;12.00;99.90;;;;;;5055460;28;20858;-57
2024/02/09 07:37:06;;;;;;;1.60;1.50;;;12.00;99.90;;;;;;5055329;28;20468;-57
2024/02/09 07:39:33;;;;;;;3.80;1.60;;;12.00;99.90;;;;;;5055655;28;20451;-57
2024/02/09 07:42:00;;;;;;;4.67;2.00;;;12.00;99.90;;;;;;5055446;28;20944;-57
2024/02/09 07:44:28;;;;;;;2.00;1.67;;;11.90;99.90;;;;;;5055217;28;20441;-57
2024/02/09 07:46:56;;;;;;;4.33;1.83;;;11.90;99.90;;;;;;5056035;28;20540;-57
2024/02/09 07:49:26;;;;;;;3.33;1.77;;;11.90;99.90;;;;;;5055308;28;20448;-57
2024/02/09 07:51:53;;;;;;;6.20;1.70;;;12.00;99.90;;;;;;5055058;28;20441;-56
2024/02/09 07:54:21;;;;;;;4.00;1.97;;;11.90;99.90;;;;;;5055137;28;20473;-56
2024/02/09 07:56:48;;;;;;;4.50;2.50;;;11.90;99.90;;;;;;5053943;28;20474;-57
2024/02/09 07:59:15;;;;;;;5.37;2.20;;;11.90;99.90;;;;;;5055069;28;20446;-57
2024/02/09 08:01:42;;;;;;;4.60;2.20;;;12.00;99.90;;;;;;5054698;28;20445;-57
2024/02/09 08:04:10;;;;;;;6.30;2.13;;;12.00;99.90;;;;;;5055503;28;20525;-56
2024/02/09 08:06:38;;;;;;;4.30;1.97;;;12.00;99.90;;;;;;5062046;28;20468;-57
2024/02/09 08:09:05;;;;;;;5.53;2.00;;;12.10;99.90;;;;;;5054874;28;20441;-58
2024/02/09 08:11:32;;;;;;;6.73;1.93;;;12.20;99.90;;;;;;5054478;28;20971;-57
2024/02/09 08:14:01;;;;;;;5.77;2.63;;;12.20;99.90;;;;;;5054587;28;20438;-56
2024/02/09 08:16:28;;;;;;;7.77;2.10;;;12.20;99.90;;;;;;5055706;28;20465;-56
2024/02/09 08:18:54;;;;;;;10.63;2.10;;;12.30;99.90;;;;;;5054485;28;20816;-56
2024/02/09 08:21:23;;;;;;;4.87;1.80;;;12.30;99.90;;;;;;5064017;28;20527;-56
2024/02/09 08:23:50;;;;;;;5.73;2.40;;;12.30;99.90;;;;;;5054201;28;20945;-56
2024/02/09 08:26:17;;;;;;;4.23;1.97;;;12.40;99.90;;;;;;5054530;28;20550;-56
2024/02/09 08:28:47;;;;;;;3.80;1.87;;;12.40;99.90;;;;;;5055517;28;20471;-56
2024/02/09 08:31:15;;;;;;;6.90;2.00;;;12.40;99.90;;;;;;5057872;28;20441;-56
2024/02/09 08:33:43;;;;;;;3.60;1.87;;;12.50;99.90;;;;;;5056525;28;20472;-56
2024/02/09 08:36:11;;;;;;;2.03;1.63;;;12.50;99.90;;;;;;5054981;28;20481;-56
2024/02/09 08:38:39;;;;;;;3.30;2.30;;;12.50;99.90;;;;;;5054536;28;20463;-56
2024/02/09 08:41:07;;;;;;;2.33;1.53;;;12.50;99.90;;;;;;5053807;28;20939;-56
2024/02/09 08:43:34;;;;;;;3.07;1.80;;;12.60;99.90;;;;;;5053613;28;20441;-56
2024/02/09 08:46:02;;;;;;;3.87;1.90;;;12.60;99.90;;;;;;5054060;28;20533;-56
2024/02/09 08:48:29;;;;;;;3.57;1.83;;;12.70;99.90;;;;;;5054465;28;20820;-56
2024/02/09 08:50:56;;;;;;;3.70;1.33;;;12.80;99.90;;;;;;5054027;28;20446;-56
2024/02/09 08:53:23;;;;;;;3.70;1.93;;;12.80;99.90;;;;;;5053853;28;20457;-56
2024/02/09 08:55:51;;;;;;;3.50;1.60;;;12.90;99.90;;;;;;5053965;28;20481;-57
2024/02/09 08:58:19;;;;;;;3.97;1.60;;;13.00;99.90;;;;;;5053987;28;20471;-56
2024/02/09 09:00:46;;;;;;;3.73;1.60;;;13.10;99.90;;;;;;5053956;28;20541;-56
2024/02/09 09:03:13;;;;;;;3.90;1.90;;;13.10;99.90;;;;;;5054030;28;20441;-56
2024/02/09 09:05:40;;;;;;;2.13;1.20;;;13.20;99.90;;;;;;5053972;28;20445;-57
2024/02/09 09:08:09;;;;;;;2.80;1.53;;;13.20;99.90;;;;;;5053583;28;20465;-56
2024/02/09 09:10:35;;;;;;;3.93;1.70;;;13.30;99.90;;;;;;5053353;28;20460;-56
2024/02/09 09:13:10;;;;;;;2.40;1.70;;;13.30;99.90;;;;;;5053656;28;20441;-56
2024/02/09 09:15:37;;;;;;;2.20;1.50;;;13.30;99.90;;;;;;5053435;28;20552;-56
2024/02/09 09:18:05;;;;;;;5.53;1.90;;;13.40;99.90;;;;;;5053646;28;20465;-56
2024/02/09 09:20:34;;;;;;;2.07;1.97;;;13.40;99.90;;;;;;5053751;28;20446;-56
2024/02/09 09:23:01;;;;;;;3.20;2.10;;;13.50;99.90;;;;;;5053621;28;20799;-56
2024/02/09 09:25:29;;;;;;;1.70;1.60;;;13.60;99.90;;;;;;5053720;28;20449;-56
2024/02/09 09:27:56;;;;;;;3.33;1.93;;;13.70;99.90;;;;;;5054348;28;20465;-56
2024/02/09 09:30:25;;;;;;;4.57;2.30;;;13.80;99.90;;;;;;5053134;28;21082;-56
2024/02/09 09:32:52;;;;;;;2.30;1.33;;;13.80;99.90;;;;;;5053648;28;20452;-56
2024/02/09 09:35:19;;;;;;;5.00;1.83;;;13.90;99.90;;;;;;5053747;28;20480;-56
2024/02/09 09:37:46;;;;;;;2.93;1.80;;;13.90;99.90;;;;;;5053113;28;20549;-56
2024/02/09 09:40:13;;;;;;;5.83;1.70;;;14.00;99.90;;;;;;5053558;28;20533;-56
2024/02/09 09:42:41;;;;;;;2.10;1.80;;;14.00;99.90;;;;;;5053470;28;20452;-55
2024/02/09 09:45:09;;;;;;;5.10;2.17;;;14.00;99.90;;;;;;5053226;28;20450;-56
2024/02/09 09:47:40;;;;;;;4.80;1.83;;;14.10;99.90;;;;;;5053388;28;20472;-56
2024/02/09 09:50:10;;;;;;;4.77;1.90;;;14.10;99.90;;;;;;5053617;28;20433;-56
2024/02/09 09:52:38;;;;;;;4.00;1.80;;;14.10;99.90;;;;;;5053089;28;20457;-57
2024/02/09 09:55:10;;;;;;;2.90;1.70;;;14.10;99.90;;;;;;5052800;28;20488;-56
2024/02/09 09:57:38;;;;;;;2.80;1.63;;;14.10;99.90;;;;;;5053950;28;20469;-56
2024/02/09 10:00:06;;;;;;;3.07;1.63;;;14.00;99.90;;;;;;5053424;28;20456;-57
2024/02/09 10:02:33;;;;;;;4.47;1.70;;;14.00;99.90;;;;;;5053252;28;20449;-55
2024/02/09 10:05:02;;;;;;;2.90;2.27;;;13.90;99.90;;;;;;5053083;28;20798;-56
2024/02/09 10:07:30;;;;;;;4.33;1.40;;;13.90;99.90;;;;;;5053573;28;20518;-56
2024/02/09 10:09:57;;;;;;;4.93;2.00;;;13.90;99.90;;;;;;5053040;28;20974;-56
2024/02/09 10:12:24;;;;;;;6.47;2.33;;;13.90;99.90;;;;;;5053525;28;20461;-56
2024/02/09 10:14:52;;;;;;;3.83;1.57;;;13.80;99.90;;;;;;5053749;28;20481;-56
2024/02/09 10:17:21;;;;;;;3.77;2.07;;;13.90;99.90;;;;;;5053610;28;20519;-56
2024/02/09 10:19:49;;;;;;;5.80;1.80;;;13.80;99.90;;;;;;5055887;28;20445;-56
2024/02/09 10:22:18;;;;;;;3.07;1.90;;;13.80;99.90;;;;;;5057245;28;20528;-56
2024/02/09 10:24:45;;;;;;;6.87;1.87;;;13.70;99.90;;;;;;5057579;28;20441;-57
2024/02/09 10:27:12;;;;;;;4.53;2.03;;;13.70;99.90;;;;;;5057094;28;20875;-58
2024/02/09 10:29:39;;;;;;;4.67;1.90;;;13.70;99.90;;;;;;5057673;28;20450;-56
2024/02/09 10:32:07;;;;;;;3.10;2.77;;;13.70;99.90;;;;;;5057547;28;20446;-56
2024/02/09 10:34:35;;;;;;;2.70;2.27;;;13.80;99.90;;;;;;5057345;28;20449;-56
2024/02/09 10:37:03;;;;;;;3.43;2.07;;;13.80;99.90;;;;;;5057364;28;20465;-57
2024/02/09 10:39:31;;;;;;;4.20;1.63;;;13.80;99.90;;;;;;5057653;28;20950;-57
2024/02/09 10:42:02;;;;;;;4.77;1.97;;;13.80;99.90;;;;;;5058621;28;20471;-56
2024/02/09 10:44:32;;;;;;;4.40;2.93;;;13.90;99.90;;;;;;5058530;28;20459;-56
2024/02/09 10:47:00;;;;;;;4.43;2.00;;;13.90;99.90;;;;;;5058825;28;20526;-57
2024/02/09 10:49:30;;;;;;;4.73;2.27;;;14.00;99.90;;;;;;5058012;28;20448;-57
2024/02/09 10:52:04;;;;;;;2.97;2.07;;;14.00;99.90;;;;;;5058410;28;20516;-56
2024/02/09 10:54:39;;;;;;;3.40;2.17;;;14.00;99.90;;;;;;5057745;28;20434;-56
2024/02/09 10:57:07;;;;;;;5.63;1.97;;;14.00;99.90;;;;;;5058483;28;20471;-56
2024/02/09 10:59:36;;;;;;;4.07;2.27;;;14.00;99.90;;;;;;5058220;28;20445;-57
2024/02/09 11:02:04;;;;;;;2.57;1.77;;;14.00;99.90;;;;;;5059523;28;20452;-56
2024/02/09 11:04:33;;;;;;;1.87;1.50;;;14.10;99.90;;;;;;5061159;28;20441;-56
2024/02/09 11:07:00;;;;;;;4.70;2.20;;;14.00;99.90;;;;;;5061007;28;20971;-57
2024/02/09 11:09:27;;;;;;;4.30;1.70;;;14.10;99.90;;;;;;5059401;28;20452;-56
2024/02/09 11:12:00;;;;;;;3.97;1.83;;;14.10;99.90;;;;;;5059633;28;20517;-56
2024/02/09 11:14:32;;;;;;;2.80;1.50;;;14.10;99.90;;;;;;5055935;28;20512;-56
2024/02/09 11:17:03;;;;;;;2.07;1.60;;;14.20;99.90;;;;;;5055748;28;20485;-57
2024/02/09 11:19:30;;;;;;;5.70;1.90;;;14.30;99.90;;;;;;5055904;28;20458;-57
2024/02/09 11:21:57;;;;;;;2.93;1.67;;;14.40;99.90;;;;;;5055642;28;20452;-56
2024/02/09 11:24:26;;;;;;;3.70;1.77;;;14.40;99.90;;;;;;5055669;28;20446;-56
2024/02/09 11:26:55;;;;;;;3.47;1.67;;;14.40;99.90;;;;;;5055592;28;20468;-57
2024/02/09 11:29:23;;;;;;;6.63;1.93;;;14.40;99.90;;;;;;5055592;28;20445;-56
2024/02/09 11:31:51;;;;;;;3.03;1.67;;;14.40;99.90;;;;;;5055438;28;20544;-56
2024/02/09 11:34:19;;;;;;;3.77;2.10;;;14.50;99.90;;;;;;5055456;28;20453;-56
2024/02/09 11:36:46;;;;;;;3.97;1.70;;;14.40;99.90;;;;;;5055353;28;20492;-56
2024/02/09 11:39:13;;;;;;;2.40;1.80;;;14.40;99.90;;;;;;5055373;28;20480;-56
2024/02/09 11:41:42;;;;;;;3.23;1.80;;;14.30;99.90;;;;;;5055569;28;20442;-56
2024/02/09 11:44:10;;;;;;;3.70;2.23;;;14.40;99.90;;;;;;5056278;28;20788;-57
2024/02/09 11:46:37;;;;;;;5.13;1.77;;;14.40;99.90;;;;;;5057728;28;20458;-56
2024/02/09 11:49:07;;;;;;;4.87;1.80;;;14.40;99.90;;;;;;5056922;28;20454;-56
2024/02/09 11:51:34;;;;;;;1.60;1.50;;;14.40;99.90;;;;;;5056144;28;20448;-56
2024/02/09 11:54:03;;;;;;;2.10;1.80;;;14.40;99.90;;;;;;5055165;28;20532;-56
2024/02/09 11:56:30;;;;;;;3.90;2.20;;;14.40;99.90;;;;;;5055332;28;20489;-56
2024/02/09 11:58:57;;;;;;;5.47;2.10;;;14.40;99.90;;;;;;5055375;28;20438;-56
2024/02/09 12:01:26;;;;;;;4.47;1.27;;;14.40;99.90;;;;;;5055586;28;20474;-56
2024/02/09 12:03:53;;;;;;;4.03;1.23;;;14.30;99.90;;;;;;5055571;28;20537;-56
2024/02/09 12:06:21;;;;;;;9.83;2.43;;;14.30;99.90;;;;;;5055306;28;20477;-56
2024/02/09 12:08:50;;;;;;;3.57;1.70;;;14.30;99.90;;;;;;5055153;28;20460;-56
2024/02/09 12:11:18;;;;;;;3.23;2.00;;;14.40;99.90;;;;;;5054282;28;20942;-56
2024/02/09 12:13:45;;;;;;;6.43;1.80;;;14.30;99.90;;;;;;5054835;28;20442;-56
2024/02/09 12:16:16;;;;;;;6.07;2.10;;;14.30;99.90;;;;;;5054812;28;20486;-55
2024/02/09 12:18:45;;;;;;;3.17;1.80;;;14.30;99.90;;;;;;5054509;28;20836;-56
2024/02/09 12:21:12;;;;;;;2.60;2.00;;;14.20;99.90;;;;;;5054393;28;20450;-56
2024/02/09 12:23:39;;;;;;;4.43;2.10;;;14.20;99.90;;;;;;5054262;28;20454;-55
2024/02/09 12:26:08;;;;;;;4.27;2.03;;;14.20;99.90;;;;;;5054357;28;20457;-56
2024/02/09 12:28:36;;;;;;;2.53;1.90;;;14.30;99.90;;;;;;5054441;28;20448;-56
2024/02/09 12:31:05;;;;;;;2.00;1.80;;;14.30;99.90;;;;;;5054569;28;20437;-55
2024/02/09 12:33:33;;;;;;;4.90;2.60;;;14.30;99.90;;;;;;5054593;28;20444;-56
2024/02/09 12:36:07;;;;;;;3.07;2.63;;;14.30;99.90;;;;;;5054035;28;20854;-56
2024/02/09 12:38:40;;;;;;;6.60;2.90;;;14.40;99.90;;;;;;5054549;28;20466;-56
2024/02/09 12:41:08;;;;;;;4.37;2.70;;;14.40;99.90;;;;;;5053961;28;20900;-56
2024/02/09 12:43:35;;;;;;;3.00;2.70;;;14.50;99.90;;;;;;5053974;28;20452;-56
2024/02/09 12:46:02;;;;;;;3.50;2.40;;;14.60;99.90;;;;;;5054156;28;20448;-55
2024/02/09 12:48:29;;;;;;;3.73;1.83;;;14.70;99.90;;;;;;5054059;28;20492;-55
2024/02/09 12:50:56;;;;;;;10.30;3.20;;;14.70;99.90;;;;;;5054171;28;20452;-56
2024/02/09 12:53:25;;;;;;;4.57;3.00;;;14.80;99.90;;;;;;5053674;28;20489;-55
2024/02/09 12:55:52;;;;;;;5.93;2.93;;;14.80;99.90;;;;;;5053977;28;20481;-55
2024/02/09 12:58:20;;;;;;;9.33;4.00;;;14.80;99.90;;;;;;5054042;28;20442;-56
2024/02/09 13:00:48;;;;;;;5.53;2.60;;;14.90;99.90;;;;;;5053699;28;20520;-56
2024/02/09 13:03:15;;;;;;;3.00;2.30;;;15.00;99.90;;;;;;5053888;28;20442;-55
2024/02/09 13:05:42;;;;;;;3.10;2.10;;;15.00;99.90;;;;;;5053973;28;20437;-56
2024/02/09 13:08:10;;;;;;;4.53;2.80;;;15.00;99.90;;;;;;5053518;28;21002;-55
2024/02/09 13:10:38;;;;;;;7.53;2.60;;;15.00;99.90;;;;;;5053762;28;20450;-55
2024/02/09 13:13:06;;;;;;;4.50;2.30;;;15.00;99.90;;;;;;5053337;28;20939;-56
2024/02/09 13:15:34;;;;;;;8.20;2.20;;;15.00;99.90;;;;;;5053633;28;20441;-55
2024/02/09 13:18:01;;;;;;;4.70;2.50;;;15.00;99.90;;;;;;5053555;28;20473;-55
2024/02/09 13:20:28;;;;;;;3.17;2.10;;;15.00;99.90;;;;;;5053463;28;20927;-56
2024/02/09 13:22:57;;;;;;;2.90;1.80;;;15.00;99.90;;;;;;5053228;28;20448;-56
2024/02/09 13:25:24;;;;;;;5.07;2.20;;;14.90;99.90;;;;;;5053522;28;20548;-56
2024/02/09 13:27:52;;;;;;;3.73;2.17;;;14.90;99.90;;;;;;5053063;28;21046;-55
2024/02/09 13:30:20;;;;;;;4.57;2.17;;;14.80;99.90;;;;;;5053454;28;20438;-56
2024/02/09 13:32:48;;;;;;;5.40;2.30;;;14.80;99.90;;;;;;5053250;28;20480;-56
2024/02/09 13:35:17;;;;;;;4.30;2.47;;;14.70;99.90;;;;;;5053572;28;21047;-55
2024/02/09 13:37:45;;;;;;;2.83;1.80;;;14.70;99.90;;;;;;5053335;28;20501;-55
2024/02/09 13:40:15;;;;;;;3.17;2.00;;;14.70;99.90;;;;;;5053319;28;20827;-55
2024/02/09 13:42:45;;;;;;;7.73;2.43;;;14.70;99.90;;;;;;5053450;28;20430;-55
2024/02/09 13:45:14;;;;;;;5.80;2.50;;;14.60;99.90;;;;;;5053293;28;20437;-55
2024/02/09 13:47:42;;;;;;;2.97;1.80;;;14.60;99.90;;;;;;5052901;28;20540;-55
2024/02/09 13:50:10;;;;;;;3.60;2.03;;;14.70;99.90;;;;;;5053209;28;20441;-55
2024/02/09 13:52:38;;;;;;;6.83;3.37;;;14.60;99.90;;;;;;5052758;28;20554;-55
2024/02/09 13:55:06;;;;;;;2.93;2.17;;;14.70;99.90;;;;;;5055587;28;20908;-56
2024/02/09 13:57:33;;;;;;;3.00;2.70;;;14.70;99.90;;;;;;5057098;28;20492;-56
2024/02/09 14:00:03;;;;;;;3.07;2.20;;;14.70;99.90;;;;;;5057267;28;20822;-56
2024/02/09 14:02:31;;;;;;;3.83;2.67;;;14.70;99.90;;;;;;5057441;28;20449;-56
2024/02/09 14:05:00;;;;;;;7.80;2.27;;;14.70;99.90;;;;;;5057785;28;20815;-56
2024/02/09 14:07:27;;;;;;;7.23;3.10;;;14.70;99.90;;;;;;5057082;28;20876;-56
2024/02/09 14:09:55;;;;;;;3.70;2.93;;;14.70;99.90;;;;;;5057083;28;20448;-57
2024/02/09 14:12:23;;;;;;;4.10;2.43;;;14.70;99.90;;;;;;5057046;28;20441;-56
2024/02/09 14:14:50;;;;;;;3.63;2.10;;;14.80;99.90;;;;;;5057064;28;20451;-56
2024/02/09 14:17:17;;;;;;;11.43;2.63;;;14.80;99.90;;;;;;5056845;28;20489;-56
2024/02/09 14:19:46;;;;;;;2.57;1.87;;;14.70;99.90;;;;;;5057149;28;20457;-56
2024/02/09 14:22:13;;;;;;;5.10;2.47;;;14.70;99.90;;;;;;5056994;28;20450;-56
2024/02/09 14:24:40;;;;;;;4.80;2.73;;;14.70;99.90;;;;;;5056702;28;20452;-56
2024/02/09 14:27:07;;;;;;;6.50;2.07;;;14.60;99.90;;;;;;5056740;28;20845;-56
2024/02/09 14:29:34;;;;;;;1.67;1.50;;;14.70;99.90;;;;;;5056824;28;20441;-55
2024/02/09 14:32:01;;;;;;;1.50;1.40;;;14.60;99.90;;;;;;5056746;28;20456;-56
2024/02/09 14:34:28;;;;;;;4.13;2.73;;;14.60;99.90;;;;;;5056405;28;20456;-56
2024/02/09 14:36:57;;;;;;;6.00;2.00;;;14.60;99.90;;;;;;5056104;28;21022;-56